Time;durP1;ratioP1;P1;durP2;ratioP2;P2;SDS_P1;SDS_P2;PMS_P1;PMS_P2;Temp;Humidity;BMP_temperature;BMP_pressure;BME280_temperature;BME280_humidity;BME280_pressure;Samples;Min_cycle;Max_cycle;Signal;HPM_P1;HPM_P2
2023/09/21 00:01:13;;;;;;;11.98;1.87;;;;;;;22.35;48.22;99381.59;4450530;32;34082;-74
2023/09/21 00:03:41;;;;;;;3.90;1.62;;;;;;;22.36;48.26;99382.44;4466052;32;34164;-74
2023/09/21 00:06:09;;;;;;;2.30;1.15;;;;;;;22.23;48.76;99388.63;4451425;32;34142;-74
2023/09/21 00:08:37;;;;;;;3.78;1.55;;;;;;;22.26;48.71;99382.78;4451583;32;34357;-74
2023/09/21 00:11:05;;;;;;;3.72;1.25;;;;;;;22.31;48.55;99380.28;4452171;32;33241;-74
2023/09/21 00:13:33;;;;;;;2.00;1.05;;;;;;;22.11;49.21;99380.12;4461465;32;34835;-73
2023/09/21 00:16:01;;;;;;;1.55;0.68;;;;;;;22.10;49.46;99381.16;4451271;32;35155;-74
2023/09/21 00:18:29;;;;;;;3.80;1.20;;;;;;;22.24;48.92;99376.69;4445020;32;35177;-75
2023/09/21 00:21:01;;;;;;;2.65;1.45;;;;;;;22.29;48.74;99372.31;4461389;32;33908;-76
2023/09/21 00:23:30;;;;;;;1.60;0.80;;;;;;;22.29;48.76;99380.50;4455916;32;34706;-74
2023/09/21 00:25:57;;;;;;;3.70;1.45;;;;;;;22.38;48.71;99378.47;4439201;32;34423;-73
2023/09/21 00:28:29;;;;;;;3.30;1.27;;;;;;;22.35;48.72;99381.59;4450174;32;34032;-75
2023/09/21 00:30:58;;;;;;;2.60;0.98;;;;;;;22.36;48.55;99379.72;4450217;32;33244;-74
2023/09/21 00:33:27;;;;;;;4.62;1.45;;;;;;;22.33;48.49;99375.50;4452234;32;34350;-74
2023/09/21 00:35:58;;;;;;;2.62;0.95;;;;;;;22.33;48.41;99375.50;4450736;32;33944;-74
2023/09/21 00:38:26;;;;;;;1.95;1.00;;;;;;;22.29;48.47;99374.22;4452777;32;35201;-74
2023/09/21 00:41:00;;;;;;;1.83;1.08;;;;;;;22.27;48.62;99368.94;4450508;32;33086;-74
2023/09/21 00:43:28;;;;;;;5.85;1.23;;;;;;;22.18;48.69;99366.56;4450676;32;33546;-75
2023/09/21 00:45:57;;;;;;;1.27;0.70;;;;;;;22.18;48.60;99359.22;4453990;32;33986;-75
2023/09/21 00:48:33;;;;;;;2.75;1.30;;;;;;;21.89;49.19;99362.13;4437544;32;34615;-75
2023/09/21 00:51:05;;;;;;;4.93;1.45;;;;;;;21.97;48.81;99362.00;4438850;32;34418;-76
2023/09/21 00:53:34;;;;;;;3.15;1.45;;;;;;;21.92;48.81;99365.28;4455991;32;33690;-72
2023/09/21 00:56:09;;;;;;;2.92;1.48;;;;;;;21.89;49.09;99359.41;4449745;32;33627;-72
2023/09/21 00:58:38;;;;;;;2.42;1.08;;;;;;;21.81;49.26;99357.69;4462678;32;34981;-73
2023/09/21 01:01:05;;;;;;;3.05;1.33;;;;;;;21.89;49.08;99360.25;4432713;32;33649;-72
2023/09/21 01:03:37;;;;;;;2.33;1.30;;;;;;;21.85;49.30;99350.78;4447842;32;34677;-72
2023/09/21 01:06:07;;;;;;;3.72;1.05;;;;;;;21.79;49.47;99354.28;4435152;32;32896;-71
2023/09/21 01:08:35;;;;;;;3.35;1.42;;;;;;;21.83;49.41;99359.16;4445620;32;33619;-73
2023/09/21 01:11:09;;;;;;;2.45;1.08;;;;;;;21.77;49.59;99354.50;4431850;32;33453;-73
2023/09/21 01:13:37;;;;;;;4.85;1.35;;;;;;;21.76;49.64;99346.50;4424936;32;33540;-74
2023/09/21 01:16:06;;;;;;;3.50;0.93;;;;;;;21.71;49.69;99344.38;4432845;32;34864;-73
2023/09/21 01:18:34;;;;;;;2.05;0.75;;;;;;;21.67;49.88;99355.84;4450533;32;33575;-74
2023/09/21 01:21:06;;;;;;;3.08;1.20;;;;;;;21.47;50.28;99351.06;4440580;32;34336;-73
2023/09/21 01:23:37;;;;;;;1.95;1.25;;;;;;;21.49;50.25;99351.72;4426991;32;33661;-76
2023/09/21 01:26:05;;;;;;;4.78;1.20;;;;;;;21.46;50.35;99349.41;4434793;32;34808;-73
2023/09/21 01:28:33;;;;;;;4.03;1.40;;;;;;;21.45;50.53;99344.16;4430930;32;33986;-72
2023/09/21 01:31:00;;;;;;;5.57;1.25;;;;;;;21.45;50.55;99346.88;4436843;32;33313;-74
2023/09/21 01:33:28;;;;;;;2.37;1.20;;;;;;;21.53;50.36;99342.12;4436981;32;33853;-75
2023/09/21 01:35:56;;;;;;;6.35;1.35;;;;;;;21.54;50.34;99335.66;4435772;32;34962;-74
2023/09/21 01:38:26;;;;;;;1.98;1.02;;;;;;;21.55;50.30;99329.16;4435518;32;33821;-75
2023/09/21 01:40:54;;;;;;;0.75;0.65;;;;;;;21.58;50.16;99331.50;4448432;32;33454;-74
2023/09/21 01:43:22;;;;;;;3.37;1.30;;;;;;;21.58;50.16;99331.50;4429978;32;34918;-75
2023/09/21 01:45:50;;;;;;;1.73;0.95;;;;;;;21.63;50.04;99331.72;4442747;32;34921;-74
2023/09/21 01:48:19;;;;;;;2.87;1.10;;;;;;;21.69;49.91;99329.28;4443696;32;34003;-74
2023/09/21 01:50:48;;;;;;;5.18;1.83;;;;;;;21.70;49.90;99326.38;4439624;32;34585;-74
2023/09/21 01:53:18;;;;;;;2.42;0.93;;;;;;;21.72;49.77;99323.44;4438159;32;35234;-76
2023/09/21 01:55:48;;;;;;;0.62;0.60;;;;;;;21.72;49.83;99321.56;4439500;32;33786;-74
2023/09/21 01:58:18;;;;;;;1.58;0.88;;;;;;;21.68;49.91;99327.59;4434378;32;33623;-74
2023/09/21 02:00:47;;;;;;;1.33;0.90;;;;;;;21.70;49.80;99317.34;4442362;32;33536;-78
2023/09/21 02:03:18;;;;;;;3.35;1.35;;;;;;;21.68;49.95;99317.53;4447916;32;33464;-75
2023/09/21 02:05:46;;;;;;;1.80;0.88;;;;;;;21.68;50.00;99311.25;4455407;32;35304;-76
2023/09/21 02:08:16;;;;;;;2.15;1.15;;;;;;;21.68;50.14;99314.00;4460537;32;34405;-76
2023/09/21 02:10:45;;;;;;;2.58;1.10;;;;;;;21.61;50.18;99312.03;4451127;32;33148;-76
2023/09/21 02:13:12;;;;;;;2.87;1.70;;;;;;;21.59;50.19;99307.81;4441130;32;33967;-76
2023/09/21 02:15:41;;;;;;;2.37;1.27;;;;;;;21.56;50.18;99313.66;4461100;32;34090;-73
2023/09/21 02:18:09;;;;;;;2.70;1.20;;;;;;;21.54;50.24;99302.13;4451166;32;33781;-76
2023/09/21 02:20:50;;;;;;;2.28;0.80;;;;;;;21.52;50.44;99306.94;4452157;32;31909;-75
2023/09/21 02:23:22;;;;;;;1.58;0.90;;;;;;;21.55;50.36;99301.94;4434389;32;33815;-76
2023/09/21 02:25:53;;;;;;;2.30;1.17;;;;;;;21.54;50.30;99300.25;4450749;32;34896;-75
2023/09/21 02:28:23;;;;;;;2.60;1.35;;;;;;;21.51;50.32;99303.38;4451116;32;34026;-76
2023/09/21 02:30:51;;;;;;;3.17;1.20;;;;;;;21.53;50.13;99304.00;4451726;32;33653;-76
2023/09/21 02:33:19;;;;;;;5.50;2.17;;;;;;;21.57;50.15;99304.44;4451710;32;34107;-74
2023/09/21 02:35:47;;;;;;;2.78;1.65;;;;;;;21.60;50.03;99298.63;4453665;32;33381;-75
2023/09/21 02:38:17;;;;;;;2.83;1.75;;;;;;;21.60;50.00;99299.47;4440174;32;33558;-75
2023/09/21 02:40:45;;;;;;;4.18;1.77;;;;;;;21.60;49.90;99304.94;4458434;32;33334;-74
2023/09/21 02:43:15;;;;;;;3.03;1.40;;;;;;;21.49;50.16;99291.81;4443373;32;35336;-75
2023/09/21 02:45:44;;;;;;;7.43;0.85;;;;;;;21.58;49.94;99293.38;4437388;32;34006;-74
2023/09/21 02:48:15;;;;;;;5.80;1.48;;;;;;;21.61;49.89;99290.25;4464756;32;34090;-75
2023/09/21 02:50:47;;;;;;;5.28;1.52;;;;;;;21.63;49.87;99284.59;4458304;32;34930;-75
2023/09/21 02:53:16;;;;;;;4.32;1.85;;;;;;;21.63;49.92;99281.88;4450567;32;34617;-75
2023/09/21 02:55:44;;;;;;;3.62;1.45;;;;;;;21.71;49.64;99284.47;4449543;32;34066;-75
2023/09/21 02:58:13;;;;;;;4.65;1.33;;;;;;;21.64;49.89;99283.59;4450045;32;34128;-74
2023/09/21 03:00:43;;;;;;;3.00;1.17;;;;;;;21.62;49.95;99275.59;4456412;32;34772;-76
2023/09/21 03:03:15;;;;;;;2.42;1.25;;;;;;;21.38;50.60;99270.59;4466020;32;34497;-75
2023/09/21 03:05:46;;;;;;;2.35;1.27;;;;;;;21.40;50.33;99269.34;4451830;32;33751;-70
2023/09/21 03:08:15;;;;;;;2.53;1.67;;;;;;;21.53;50.09;99268.59;4449942;32;33045;-74
2023/09/21 03:10:44;;;;;;;3.60;2.03;;;;;;;21.61;49.89;99267.63;4450560;32;33227;-76
2023/09/21 03:13:17;;;;;;;3.55;1.20;;;;;;;21.67;49.71;99269.56;4450436;32;35047;-72
2023/09/21 03:15:47;;;;;;;3.60;1.48;;;;;;;21.72;49.64;99271.69;4451404;32;35611;-71
2023/09/21 03:18:15;;;;;;;3.58;1.75;;;;;;;21.76;49.54;99272.97;4447307;32;33413;-71
2023/09/21 03:20:44;;;;;;;2.55;1.30;;;;;;;21.78;49.38;99268.19;4452952;32;34693;-72
2023/09/21 03:23:13;;;;;;;2.28;1.37;;;;;;;21.81;49.29;99278.69;4444746;32;34693;-72
2023/09/21 03:25:49;;;;;;;1.95;1.15;;;;;;;21.83;49.20;99269.28;4454442;32;34170;-72
2023/09/21 03:28:19;;;;;;;1.55;0.88;;;;;;;21.73;49.65;99271.47;4450671;32;33480;-72
2023/09/21 03:30:52;;;;;;;3.37;1.60;;;;;;;21.75;49.25;99258.50;4451546;32;33724;-73
2023/09/21 03:33:21;;;;;;;2.40;1.33;;;;;;;21.47;50.03;99268.56;4450828;32;33746;-73
2023/09/21 03:35:49;;;;;;;3.70;1.83;;;;;;;21.49;50.00;99261.87;4453924;32;33582;-71
2023/09/21 03:38:18;;;;;;;3.47;1.33;;;;;;;21.27;50.74;99258.31;4450656;32;34131;-72
2023/09/21 03:40:48;;;;;;;2.12;1.37;;;;;;;21.11;51.06;99248.53;4451319;32;33557;-71
2023/09/21 03:43:18;;;;;;;3.20;1.52;;;;;;;21.24;50.96;99255.97;4442104;32;33491;-72
2023/09/21 03:45:47;;;;;;;2.78;1.17;;;;;;;21.08;51.01;99240.75;4442833;32;35572;-72
2023/09/21 03:48:16;;;;;;;4.80;1.98;;;;;;;21.05;51.32;99243.84;4460161;32;33999;-72
2023/09/21 03:50:44;;;;;;;4.32;1.85;;;;;;;21.15;51.13;99238.09;4451606;32;33173;-72
2023/09/21 03:53:13;;;;;;;4.32;1.87;;;;;;;21.12;51.33;99231.19;4446679;32;33972;-73
2023/09/21 03:55:46;;;;;;;2.50;1.23;;;;;;;21.12;51.45;99238.47;4448261;32;33947;-73
2023/09/21 03:58:14;;;;;;;4.57;1.83;;;;;;;20.98;52.26;99236.69;4450164;32;33703;-73
2023/09/21 04:00:42;;;;;;;2.50;1.15;;;;;;;21.43;51.07;99242.78;4448171;32;33441;-74
2023/09/21 04:03:10;;;;;;;4.25;2.28;;;;;;;21.39;51.21;99236.88;4455621;32;34721;-74
2023/09/21 04:05:42;;;;;;;3.70;1.75;;;;;;;21.42;50.67;99231.03;4466323;32;32747;-73
2023/09/21 04:08:10;;;;;;;3.95;1.45;;;;;;;21.33;50.83;99240.34;4452182;32;34848;-74
2023/09/21 04:10:37;;;;;;;2.85;1.45;;;;;;;21.52;50.29;99230.69;4446309;32;34880;-74
2023/09/21 04:13:05;;;;;;;12.63;1.92;;;;;;;21.24;51.66;99231.47;4449510;32;33897;-74
2023/09/21 04:15:34;;;;;;;4.18;1.17;;;;;;;21.36;50.94;99229.09;4453713;32;33658;-74
2023/09/21 04:18:02;;;;;;;3.78;1.87;;;;;;;21.58;50.39;99233.47;4451634;32;35231;-75
2023/09/21 04:20:34;;;;;;;4.45;1.65;;;;;;;21.53;50.15;99232.38;4451501;32;33162;-74
2023/09/21 04:23:03;;;;;;;2.72;1.52;;;;;;;20.90;52.06;99237.66;4449174;32;33181;-73
2023/09/21 04:25:32;;;;;;;4.75;1.62;;;;;;;21.32;51.08;99228.63;4454935;32;34337;-73
2023/09/21 04:28:01;;;;;;;3.58;1.55;;;;;;;21.12;51.59;99233.91;4448990;32;33893;-74
2023/09/21 04:30:29;;;;;;;4.12;1.73;;;;;;;21.11;52.05;99237.63;4450376;32;33309;-75
2023/09/21 04:32:57;;;;;;;2.12;1.23;;;;;;;21.53;51.29;99238.66;4451147;32;33790;-74
2023/09/21 04:35:26;;;;;;;3.92;1.80;;;;;;;21.67;50.84;99245.06;4425284;32;33817;-74
2023/09/21 04:37:56;;;;;;;10.23;2.67;;;;;;;21.79;50.66;99248.06;4433841;32;35221;-75
2023/09/21 04:40:26;;;;;;;4.93;2.30;;;;;;;21.86;50.06;99247.09;4419141;32;33188;-72
2023/09/21 04:42:56;;;;;;;2.75;1.77;;;;;;;21.89;50.04;99242.25;4422723;32;34623;-73
2023/09/21 04:45:26;;;;;;;2.62;1.42;;;;;;;21.71;50.88;99246.34;4418736;32;33864;-71
2023/09/21 04:48:03;;;;;;;2.53;1.90;;;;;;;21.84;50.60;99246.44;4424223;32;34794;-72
2023/09/21 04:50:32;;;;;;;4.97;1.67;;;;;;;21.94;50.31;99240.63;4429278;32;34190;-71
2023/09/21 04:53:00;;;;;;;3.35;1.75;;;;;;;22.03;50.07;99244.88;4427757;32;33581;-71
2023/09/21 04:55:27;;;;;;;2.58;1.52;;;;;;;21.97;50.40;99242.94;4435104;32;35280;-72
2023/09/21 04:57:55;;;;;;;2.28;1.52;;;;;;;21.89;50.19;99237.66;4422797;32;33765;-71
2023/09/21 05:00:23;;;;;;;2.58;1.62;;;;;;;21.67;51.24;99241.47;4419831;32;33410;-72
2023/09/21 05:02:51;;;;;;;4.20;1.98;;;;;;;21.42;51.71;99238.37;4416440;32;34584;-72
2023/09/21 05:05:19;;;;;;;4.37;2.20;;;;;;;21.44;51.38;99239.84;4417717;32;34259;-74
2023/09/21 05:07:47;;;;;;;2.95;1.42;;;;;;;21.38;51.69;99241.50;4418601;32;34447;-73
2023/09/21 05:10:15;;;;;;;5.97;2.50;;;;;;;21.50;51.39;99244.50;4431458;32;33527;-72
2023/09/21 05:12:43;;;;;;;4.25;2.37;;;;;;;21.46;51.47;99242.38;4439899;32;33557;-72
2023/09/21 05:15:14;;;;;;;2.87;1.73;;;;;;;21.63;51.12;99241.88;4433749;32;34998;-71
2023/09/21 05:17:42;;;;;;;6.28;2.85;;;;;;;21.73;51.08;99246.13;4448413;32;35221;-71
2023/09/21 05:20:10;;;;;;;2.17;1.15;;;;;;;21.61;51.65;99245.84;4446629;32;33565;-72
2023/09/21 05:22:42;;;;;;;3.80;1.83;;;;;;;21.78;51.08;99240.94;4441809;32;33566;-71
2023/09/21 05:25:10;;;;;;;6.12;1.73;;;;;;;21.77;51.01;99236.53;4434345;32;34224;-72
2023/09/21 05:27:41;;;;;;;5.62;1.95;;;;;;;21.83;51.13;99241.19;4440889;32;34034;-72
2023/09/21 05:30:09;;;;;;;4.07;2.60;;;;;;;21.85;51.22;99237.19;4441615;32;33577;-72
2023/09/21 05:32:38;;;;;;;6.40;2.05;;;;;;;21.67;52.06;99247.78;4438152;32;33588;-71
2023/09/21 05:35:07;;;;;;;5.43;2.33;;;;;;;21.59;52.41;99243.31;4436479;32;34248;-73
2023/09/21 05:37:35;;;;;;;7.70;2.45;;;;;;;21.65;52.47;99236.25;4445486;32;34351;-74
2023/09/21 05:40:05;;;;;;;2.30;1.27;;;;;;;21.33;53.14;99237.63;4446608;32;33486;-72
2023/09/21 05:42:34;;;;;;;6.18;2.97;;;;;;;21.32;53.30;99234.06;4436436;32;33592;-74
2023/09/21 05:45:02;;;;;;;7.53;2.53;;;;;;;21.22;53.53;99247.19;4436453;32;33834;-74
2023/09/21 05:47:31;;;;;;;3.95;1.95;;;;;;;21.15;53.85;99238.09;4438701;32;34242;-74
2023/09/21 05:49:59;;;;;;;2.92;1.92;;;;;;;21.32;53.25;99246.84;4437025;32;33103;-73
2023/09/21 05:52:29;;;;;;;6.22;2.62;;;;;;;20.82;53.32;99252.19;4447252;32;33437;-73
2023/09/21 05:54:57;;;;;;;3.00;1.70;;;;;;;21.14;53.72;99239.13;4445034;32;35224;-73
2023/09/21 05:57:24;;;;;;;3.70;1.30;;;;;;;21.23;53.38;99235.25;4447213;32;34954;-74
2023/09/21 05:59:52;;;;;;;2.47;1.50;;;;;;;21.43;52.86;99240.03;4442302;32;33444;-73
2023/09/21 06:02:21;;;;;;;6.97;1.77;;;;;;;20.84;54.29;99233.00;4439811;32;33528;-74
2023/09/21 06:04:49;;;;;;;3.47;1.62;;;;;;;21.36;52.91;99240.00;4451729;32;33799;-73
2023/09/21 06:07:16;;;;;;;2.87;1.60;;;;;;;21.54;52.75;99250.38;4451949;32;34944;-73
2023/09/21 06:09:44;;;;;;;3.15;1.45;;;;;;;21.42;52.41;99238.37;4451959;32;33136;-73
2023/09/21 06:12:12;;;;;;;2.80;1.33;;;;;;;21.68;51.84;99233.13;4450450;32;33401;-73
2023/09/21 06:14:41;;;;;;;3.97;1.95;;;;;;;21.69;51.75;99237.53;4450103;32;34084;-73
2023/09/21 06:17:13;;;;;;;3.12;1.30;;;;;;;21.70;51.69;99231.06;4449287;32;35038;-73
2023/09/21 06:19:44;;;;;;;2.10;1.35;;;;;;;21.83;51.59;99233.84;4449891;32;34301;-73
2023/09/21 06:22:12;;;;;;;5.12;1.92;;;;;;;21.94;51.33;99242.50;4451360;32;33761;-74
2023/09/21 06:24:42;;;;;;;3.15;1.40;;;;;;;21.70;52.32;99239.22;4452096;32;34076;-73
2023/09/21 06:27:10;;;;;;;5.18;2.30;;;;;;;21.86;52.59;99240.75;4450117;32;34086;-73
2023/09/21 06:29:38;;;;;;;3.42;1.77;;;;;;;21.93;52.35;99238.09;4450217;32;33644;-73
2023/09/21 06:32:07;;;;;;;4.20;1.75;;;;;;;21.35;54.04;99238.31;4447538;32;34738;-73
2023/09/21 06:34:41;;;;;;;3.55;1.85;;;;;;;21.38;54.29;99244.22;4451391;32;35038;-73
2023/09/21 06:37:10;;;;;;;2.97;1.60;;;;;;;21.70;53.41;99235.62;4449847;32;33639;-73
2023/09/21 06:39:37;;;;;;;2.92;1.70;;;;;;;21.59;53.87;99226.97;4452267;32;32536;-73
2023/09/21 06:42:05;;;;;;;6.20;3.17;;;;;;;21.54;54.46;99228.59;4446657;32;33825;-73
2023/09/21 06:44:33;;;;;;;5.35;2.28;;;;;;;21.71;54.24;99226.44;4449801;32;33737;-73
2023/09/21 06:47:01;;;;;;;5.37;2.83;;;;;;;21.80;54.29;99217.91;4450452;32;33874;-74
2023/09/21 06:49:29;;;;;;;4.87;3.05;;;;;;;21.75;54.35;99225.81;4448414;32;33910;-73
2023/09/21 06:51:58;;;;;;;9.00;3.70;;;;;;;21.76;54.03;99223.94;4450926;32;34970;-72
2023/09/21 06:54:27;;;;;;;4.80;2.45;;;;;;;21.52;54.70;99215.19;4450999;32;35310;-73
2023/09/21 06:57:03;;;;;;;8.23;3.62;;;;;;;21.72;54.23;99214.50;4451461;32;35260;-73
2023/09/21 06:59:34;;;;;;;4.68;2.30;;;;;;;21.91;53.86;99211.06;4451061;32;33292;-73
2023/09/21 07:02:04;;;;;;;5.05;1.98;;;;;;;22.15;53.63;99217.03;4447391;32;34065;-72
2023/09/21 07:04:52;;;;;;;4.30;2.05;;;;;;;22.08;53.76;99215.13;4444664;32;34217;-72
2023/09/21 07:07:21;;;;;;;4.90;1.87;;;;;;;21.92;53.85;99215.44;4440427;32;34356;-72
2023/09/21 07:09:48;;;;;;;4.00;2.10;;;;;;;22.06;52.72;99219.09;4436705;32;33508;-72
2023/09/21 07:12:17;;;;;;;19.48;3.12;;;;;;;22.00;52.91;99214.47;4435428;32;34976;-73
2023/09/21 07:14:49;;;;;;;5.18;2.47;;;;;;;22.02;52.85;99215.09;4446561;32;33691;-72
2023/09/21 07:17:17;;;;;;;8.52;2.37;;;;;;;21.86;53.42;99208.06;4445453;32;33667;-73
2023/09/21 07:19:45;;;;;;;8.23;3.20;;;;;;;21.80;53.78;99207.00;4438836;32;33277;-72
2023/09/21 07:22:12;;;;;;;3.87;2.08;;;;;;;21.86;53.70;99208.06;4385105;32;33977;-73
2023/09/21 07:24:40;;;;;;;2.85;1.73;;;;;;;21.90;53.86;99212.09;4385821;32;34847;-73
2023/09/21 07:27:08;;;;;;;8.30;2.92;;;;;;;22.20;53.18;99217.31;4374389;32;34489;-72
2023/09/21 07:29:36;;;;;;;5.30;2.80;;;;;;;22.30;53.17;99212.31;4377669;32;33841;-73
2023/09/21 07:32:04;;;;;;;4.78;2.55;;;;;;;22.40;52.69;99207.31;4384898;32;33782;-73
2023/09/21 07:34:34;;;;;;;3.60;2.10;;;;;;;22.35;52.98;99217.19;4379202;32;33683;-72
2023/09/21 07:37:02;;;;;;;3.67;1.50;;;;;;;22.66;52.51;99211.19;4391064;32;34635;-72
2023/09/21 07:39:30;;;;;;;6.85;2.28;;;;;;;23.18;50.88;99210.47;4386597;32;33433;-72
2023/09/21 07:41:58;;;;;;;5.07;2.37;;;;;;;23.10;51.00;99209.81;4387570;32;33259;-72
2023/09/21 07:44:26;;;;;;;3.42;1.87;;;;;;;23.07;51.07;99218.44;4388085;32;34927;-71
2023/09/21 07:46:56;;;;;;;5.55;2.10;;;;;;;23.10;51.40;99224.31;4383917;32;33684;-72
2023/09/21 07:49:25;;;;;;;8.13;2.65;;;;;;;23.04;51.54;99218.84;4388075;32;33320;-73
2023/09/21 07:51:55;;;;;;;3.78;2.20;;;;;;;23.09;51.42;99217.19;4357574;32;34946;-72
2023/09/21 07:54:23;;;;;;;6.87;2.45;;;;;;;22.72;52.25;99218.53;4398391;32;34106;-73
2023/09/21 07:56:51;;;;;;;4.57;2.33;;;;;;;22.74;52.58;99219.19;4404357;32;34339;-73
2023/09/21 07:59:19;;;;;;;3.47;2.03;;;;;;;22.81;52.53;99228.22;4402561;32;34639;-72
2023/09/21 08:01:48;;;;;;;6.72;2.62;;;;;;;22.73;52.77;99222.97;4402258;32;34817;-72
2023/09/21 08:04:17;;;;;;;5.65;2.72;;;;;;;22.65;53.33;99228.59;4402916;32;33843;-72
2023/09/21 08:06:45;;;;;;;8.32;2.60;;;;;;;22.67;53.29;99224.63;4374667;32;33534;-71
2023/09/21 08:09:18;;;;;;;6.37;1.83;;;;;;;22.85;52.94;99234.94;4386373;32;33551;-72
2023/09/21 08:12:00;;;;;;;3.30;1.75;;;;;;;22.54;54.02;99235.50;4388849;32;34652;-72
2023/09/21 08:14:29;;;;;;;5.95;2.65;;;;;;;22.81;53.48;99230.13;4386401;32;35112;-72
2023/09/21 08:16:59;;;;;;;5.22;2.42;;;;;;;22.74;53.73;99241.00;4379599;32;34750;-71
2023/09/21 08:19:27;;;;;;;5.05;2.12;;;;;;;22.95;53.24;99240.88;4375092;32;33045;-72
2023/09/21 08:21:55;;;;;;;3.65;1.77;;;;;;;23.15;52.80;99251.00;4380291;32;33668;-71
2023/09/21 08:24:23;;;;;;;5.43;1.58;;;;;;;23.25;52.44;99257.72;4405260;32;34900;-71
2023/09/21 08:26:51;;;;;;;2.53;1.45;;;;;;;23.24;51.99;99271.56;4405867;32;34081;-74
2023/09/21 08:29:21;;;;;;;5.53;2.12;;;;;;;23.10;52.46;99283.53;4413410;32;32974;-72
2023/09/21 08:31:49;;;;;;;7.35;2.53;;;;;;;23.39;53.44;99279.56;4404884;32;33580;-72
2023/09/21 08:34:19;;;;;;;3.37;1.65;;;;;;;23.51;53.72;99274.34;4399181;32;34934;-72
2023/09/21 08:36:47;;;;;;;3.65;2.53;;;;;;;22.84;57.40;99270.63;4398951;32;35154;-70
2023/09/21 08:39:15;;;;;;;7.50;1.77;;;;;;;23.30;55.69;99272.62;4432712;32;33572;-74
2023/09/21 08:41:52;;;;;;;4.87;1.90;;;;;;;22.92;56.41;99262.22;4438039;32;33096;-75
2023/09/21 08:44:20;;;;;;;3.03;1.67;;;;;;;22.97;57.27;99257.03;4424714;32;34526;-72
2023/09/21 08:46:48;;;;;;;3.95;2.75;;;;;;;22.74;58.13;99244.56;4438744;32;34264;-72
2023/09/21 08:49:17;;;;;;;3.53;2.40;;;;;;;22.44;59.20;99241.34;4438234;32;34060;-73
2023/09/21 08:51:46;;;;;;;9.55;2.45;;;;;;;22.39;59.60;99232.06;4437124;32;35628;-74
2023/09/21 08:54:15;;;;;;;4.53;2.53;;;;;;;21.98;61.53;99233.72;4423618;32;33743;-73
2023/09/21 08:56:46;;;;;;;6.78;2.78;;;;;;;22.14;60.95;99231.72;4432349;32;33967;-71
2023/09/21 08:59:15;;;;;;;4.07;2.20;;;;;;;22.18;61.40;99231.13;4438260;32;33407;-71
2023/09/21 09:01:43;;;;;;;4.97;2.35;;;;;;;22.17;61.63;99229.44;4424200;32;34333;-73
2023/09/21 09:04:11;;;;;;;5.57;2.47;;;;;;;22.33;61.23;99239.19;4435621;32;33855;-71
2023/09/21 09:06:39;;;;;;;4.60;2.37;;;;;;;22.38;60.83;99239.41;4431698;32;33806;-72
2023/09/21 09:09:07;;;;;;;9.05;4.57;;;;;;;22.40;60.86;99226.41;4445789;32;33703;-72
2023/09/21 09:11:40;;;;;;;5.10;2.67;;;;;;;22.31;61.57;99235.81;4437129;32;34816;-71
2023/09/21 09:14:22;;;;;;;8.45;3.20;;;;;;;22.42;61.51;99221.59;4437326;32;35069;-71
2023/09/21 09:16:50;;;;;;;7.37;3.05;;;;;;;22.41;61.04;99230.00;4426384;32;33906;-71
2023/09/21 09:19:18;;;;;;;5.72;2.70;;;;;;;22.64;60.10;99232.38;4437560;32;33431;-70
2023/09/21 09:21:47;;;;;;;7.80;3.28;;;;;;;22.69;59.97;99227.97;4436402;32;33567;-71
2023/09/21 09:24:16;;;;;;;3.90;2.47;;;;;;;22.42;60.50;99218.88;4438727;32;33773;-72
2023/09/21 09:26:44;;;;;;;5.15;3.37;;;;;;;22.23;61.14;99225.09;4438617;32;34639;-74
2023/09/21 09:29:16;;;;;;;5.15;2.95;;;;;;;22.56;59.79;99212.41;4446163;32;34013;-72
2023/09/21 09:31:47;;;;;;;5.03;2.65;;;;;;;22.54;60.25;99221.88;4435054;32;33468;-73
2023/09/21 09:34:18;;;;;;;8.38;2.42;;;;;;;22.36;60.79;99207.94;4435932;32;32707;-71
2023/09/21 09:36:50;;;;;;;5.50;2.58;;;;;;;22.48;61.39;99214.50;4437539;32;35121;-71
2023/09/21 09:39:19;;;;;;;6.87;3.03;;;;;;;22.90;60.10;99212.50;4434110;32;33415;-69
2023/09/21 09:41:49;;;;;;;5.30;3.50;;;;;;;22.78;60.33;99215.00;4433724;32;33565;-72
2023/09/21 09:44:22;;;;;;;4.60;2.50;;;;;;;22.76;60.03;99206.16;4424637;32;35746;-72
2023/09/21 09:46:56;;;;;;;6.05;2.92;;;;;;;22.85;60.06;99199.47;4433008;32;33899;-71
2023/09/21 09:49:28;;;;;;;6.70;2.33;;;;;;;22.92;59.79;99199.47;4438188;32;33199;-72
2023/09/21 09:52:00;;;;;;;8.40;4.30;;;;;;;22.83;60.54;99206.19;4441100;32;33719;-74
2023/09/21 09:54:28;;;;;;;5.47;3.00;;;;;;;23.02;60.34;99202.69;4436464;32;35164;-72
2023/09/21 09:56:58;;;;;;;6.97;3.08;;;;;;;23.02;60.31;99199.97;4435777;32;35180;-71
2023/09/21 09:59:28;;;;;;;4.22;2.37;;;;;;;23.16;60.09;99196.19;4421023;32;34773;-73
2023/09/21 10:01:58;;;;;;;7.85;3.42;;;;;;;22.87;60.15;99196.53;4444033;32;34075;-72
2023/09/21 10:04:32;;;;;;;3.80;2.08;;;;;;;22.74;60.60;99191.91;4439895;32;33662;-71
2023/09/21 10:07:00;;;;;;;6.12;3.22;;;;;;;23.10;59.55;99196.19;4432225;32;35265;-72
2023/09/21 10:09:28;;;;;;;4.10;2.35;;;;;;;22.83;59.14;99187.09;4432600;32;33616;-72
2023/09/21 10:11:57;;;;;;;6.15;2.92;;;;;;;22.84;59.97;99189.59;4436646;32;33302;-72
2023/09/21 10:14:25;;;;;;;5.25;2.70;;;;;;;22.58;60.43;99189.56;4443854;32;35231;-71
2023/09/21 10:16:55;;;;;;;4.30;2.72;;;;;;;22.48;60.60;99185.34;4452875;32;34043;-72
2023/09/21 10:19:28;;;;;;;6.37;2.85;;;;;;;22.81;59.32;99175.53;4452838;32;34387;-76
2023/09/21 10:21:56;;;;;;;6.93;2.72;;;;;;;22.88;59.76;99173.66;4432024;32;33863;-72
2023/09/21 10:24:26;;;;;;;4.12;2.45;;;;;;;23.23;59.53;99171.59;4429010;32;33769;-72
2023/09/21 10:26:58;;;;;;;6.82;2.83;;;;;;;23.28;58.13;99162.81;4435178;32;32815;-71
2023/09/21 10:29:36;;;;;;;8.40;2.40;;;;;;;22.75;58.69;99163.56;4439335;32;33304;-70
2023/09/21 10:32:08;;;;;;;5.75;2.22;;;;;;;22.92;57.59;99164.88;4431652;32;34038;-71
2023/09/21 10:34:45;;;;;;;4.72;2.62;;;;;;;22.91;57.69;99168.63;4431213;32;33469;-73
2023/09/21 10:37:15;;;;;;;10.30;3.40;;;;;;;23.08;57.44;99162.78;4437165;32;34719;-72
2023/09/21 10:39:44;;;;;;;4.82;3.03;;;;;;;23.19;57.25;99159.44;4434061;32;33274;-73
2023/09/21 10:42:12;;;;;;;5.82;3.35;;;;;;;23.32;57.40;99155.87;4432081;32;34765;-72
2023/09/21 10:44:55;;;;;;;7.60;2.53;;;;;;;23.35;55.89;99148.09;4441311;32;33761;-72
2023/09/21 10:47:35;;;;;;;6.47;3.42;;;;;;;23.12;56.76;99145.78;4442818;32;33835;-72
2023/09/21 10:50:15;;;;;;;5.45;2.83;;;;;;;23.09;56.93;99137.19;4437541;32;33330;-71
2023/09/21 10:52:48;;;;;;;7.35;2.78;;;;;;;23.25;56.67;99136.75;4436110;32;33820;-71
2023/09/21 10:55:17;;;;;;;4.28;2.22;;;;;;;23.35;56.43;99134.44;4434525;32;34941;-71
2023/09/21 10:57:47;;;;;;;4.97;2.28;;;;;;;23.35;55.71;99128.97;4431805;32;34328;-71
2023/09/21 11:00:18;;;;;;;4.93;2.85;;;;;;;23.20;56.56;99129.19;4436079;32;33622;-71
2023/09/21 11:02:49;;;;;;;6.97;3.22;;;;;;;23.47;55.58;99121.81;4436495;32;34774;-72
2023/09/21 11:05:19;;;;;;;7.55;3.25;;;;;;;23.39;56.47;99124.75;4416246;32;32560;-72
2023/09/21 11:07:51;;;;;;;5.70;3.15;;;;;;;23.63;54.90;99108.75;4414512;32;34665;-73
2023/09/21 11:10:20;;;;;;;5.95;2.60;;;;;;;23.77;54.26;99104.94;4417240;32;33706;-70
2023/09/21 11:12:48;;;;;;;5.40;2.60;;;;;;;23.67;54.68;99104.53;4413692;32;33851;-71
2023/09/21 11:15:16;;;;;;;24.85;3.72;;;;;;;23.43;55.81;99097.84;4427566;32;34032;-70
2023/09/21 11:17:46;;;;;;;5.82;2.90;;;;;;;23.78;54.98;99103.88;4419573;32;33856;-72
2023/09/21 11:20:18;;;;;;;6.70;3.22;;;;;;;23.79;54.10;99096.50;4420274;32;32980;-70
2023/09/21 11:22:48;;;;;;;6.62;3.87;;;;;;;23.56;54.71;99092.34;4416114;32;34230;-70
2023/09/21 11:25:18;;;;;;;4.97;2.67;;;;;;;23.71;54.17;99084.78;4432185;32;33954;-71
2023/09/21 11:27:46;;;;;;;6.15;3.12;;;;;;;23.75;54.70;99078.87;4429791;32;34215;-70
2023/09/21 11:30:14;;;;;;;4.93;2.65;;;;;;;23.57;54.94;99072.19;4431407;32;34624;-71
2023/09/21 11:32:46;;;;;;;4.25;2.42;;;;;;;23.96;53.04;99067.66;4433069;32;33678;-70
2023/09/21 11:35:16;;;;;;;4.12;2.72;;;;;;;23.99;54.06;99063.66;4430678;32;33802;-71
2023/09/21 11:37:45;;;;;;;6.68;3.92;;;;;;;23.97;53.29;99055.66;4460458;32;35036;-72
2023/09/21 11:40:14;;;;;;;12.80;3.25;;;;;;;24.04;53.04;99053.72;4455107;32;32248;-72
2023/09/21 11:42:46;;;;;;;10.43;3.83;;;;;;;24.06;53.63;99048.06;4464194;32;35066;-72
2023/09/21 11:45:16;;;;;;;7.70;4.37;;;;;;;24.08;53.98;99048.69;4464832;32;34917;-72